createdAt,value
2023-03-23T15:58:12.927Z,93.20
2023-03-23T16:00:41.346Z,93.40
2023-03-23T16:03:13.806Z,93.40
2023-03-23T16:05:41.287Z,93.30
2023-03-23T16:08:11.777Z,93.60
2023-03-23T16:10:38.954Z,93.80
2023-03-23T16:13:06.234Z,94.00
2023-03-23T16:15:32.959Z,94.10
2023-03-23T16:17:59.795Z,94.40
2023-03-23T16:20:29.350Z,94.60
2023-03-23T16:22:56.513Z,94.80
2023-03-23T16:25:23.267Z,94.90
2023-03-23T16:27:52.329Z,95.00
2023-03-23T16:30:28.767Z,95.10
2023-03-23T16:32:57.111Z,95.20
2023-03-23T16:35:25.669Z,95.30
2023-03-23T16:38:07.671Z,95.30
2023-03-23T16:40:36.503Z,95.10
2023-03-23T16:43:09.191Z,95.20
2023-03-23T16:45:38.190Z,95.30
2023-03-23T16:48:06.062Z,95.40
2023-03-23T16:50:33.847Z,95.50
2023-03-23T16:53:01.691Z,95.60
2023-03-23T16:55:28.468Z,95.60
2023-03-23T16:58:05.255Z,95.50
2023-03-23T17:00:40.997Z,95.60
2023-03-23T17:03:08.540Z,95.70
2023-03-23T17:05:37.246Z,95.80
2023-03-23T17:08:04.893Z,95.90
2023-03-23T17:10:32.313Z,96.00
2023-03-23T17:12:59.360Z,96.10
2023-03-23T17:15:26.504Z,96.20
2023-03-23T17:17:55.058Z,96.60
2023-03-23T17:20:22.944Z,96.40
2023-03-23T17:22:49.880Z,96.60
2023-03-23T17:25:16.719Z,96.60
2023-03-23T17:27:43.467Z,96.60
2023-03-23T17:30:11.249Z,96.70
2023-03-23T17:32:38.503Z,96.80
2023-03-23T17:35:06.952Z,96.90
2023-03-23T17:37:35.081Z,97.10
2023-03-23T17:40:02.275Z,97.00
2023-03-23T17:42:30.364Z,97.00
2023-03-23T17:44:57.109Z,97.20
2023-03-23T17:47:24.110Z,97.20
2023-03-23T17:49:51.315Z,97.30
2023-03-23T17:52:18.290Z,97.50
2023-03-23T17:54:45.228Z,97.70
2023-03-23T17:57:12.063Z,98.00
2023-03-23T17:59:38.956Z,98.30
2023-03-23T18:02:06.182Z,98.60
2023-03-23T18:04:33.036Z,99.00
2023-03-23T18:07:00.389Z,99.30
2023-03-23T18:09:27.199Z,99.60
2023-03-23T18:11:53.964Z,99.80
2023-03-23T18:14:20.796Z,99.90
2023-03-23T18:16:48.262Z,99.90
2023-03-23T18:19:15.330Z,99.90
2023-03-23T18:21:44.532Z,99.90
2023-03-23T18:24:12.608Z,99.90
2023-03-23T18:26:39.845Z,99.90
2023-03-23T18:29:06.550Z,99.90
2023-03-23T18:31:34.189Z,99.90
2023-03-23T18:34:01.048Z,99.90
2023-03-23T18:36:28.469Z,99.90
2023-03-23T18:38:57.035Z,99.90
2023-03-23T18:41:24.476Z,99.90
2023-03-23T18:43:51.432Z,99.90
2023-03-23T18:46:18.461Z,99.90
2023-03-23T18:48:45.359Z,99.90
2023-03-23T18:51:12.780Z,99.90
2023-03-23T18:53:40.298Z,99.90
2023-03-23T18:56:09.041Z,99.90
2023-03-23T18:58:36.247Z,99.90
2023-03-23T19:01:08.844Z,99.90
2023-03-23T19:03:36.342Z,99.90
2023-03-23T19:06:04.567Z,99.90
2023-03-23T19:08:31.796Z,99.90
2023-03-23T19:11:01.552Z,99.90
2023-03-23T19:13:29.962Z,99.90
2023-03-23T19:15:57.091Z,99.90
2023-03-23T19:18:23.787Z,99.90
2023-03-23T19:23:22.179Z,99.90
2023-03-23T19:25:49.328Z,99.90
2023-03-23T19:30:49.844Z,99.90
2023-03-23T19:33:17.028Z,99.90
2023-03-23T19:35:45.637Z,99.90
2023-03-23T19:38:13.105Z,99.90
2023-03-23T19:40:42.264Z,99.90
2023-03-23T19:43:09.854Z,99.90
2023-03-23T19:45:37.017Z,99.90
2023-03-23T19:48:04.125Z,99.90
2023-03-23T19:50:32.846Z,99.90
2023-03-23T19:53:00.502Z,99.90
2023-03-23T19:55:27.816Z,99.90
2023-03-23T19:57:55.105Z,99.90
2023-03-23T20:00:24.014Z,99.90
2023-03-23T20:02:51.808Z,99.90
2023-03-23T20:05:18.798Z,99.90
2023-03-23T20:07:51.528Z,99.90
2023-03-23T20:10:19.122Z,99.90
2023-03-23T20:12:46.643Z,99.90
2023-03-23T20:15:13.365Z,99.90
2023-03-23T20:17:40.153Z,99.90
2023-03-23T20:20:10.275Z,99.90
2023-03-23T20:22:38.049Z,99.90
2023-03-23T20:25:07.356Z,99.90
2023-03-23T20:27:35.082Z,99.90
2023-03-23T20:30:04.196Z,99.90
2023-03-23T20:32:35.193Z,99.90
2023-03-23T20:35:06.379Z,99.90
2023-03-23T20:37:34.772Z,99.90
2023-03-23T20:40:02.494Z,99.90
2023-03-23T20:42:29.665Z,99.90
2023-03-23T20:44:56.952Z,99.90
2023-03-23T20:47:23.764Z,99.90
2023-03-23T20:49:53.035Z,99.90
2023-03-23T20:52:21.016Z,99.90
2023-03-23T20:54:49.116Z,99.90
2023-03-23T20:57:16.006Z,99.90
2023-03-23T20:59:42.801Z,99.90
2023-03-23T21:02:15.289Z,99.90
2023-03-23T21:04:42.463Z,99.90
2023-03-23T21:07:10.782Z,99.90
2023-03-23T21:09:37.659Z,99.90
2023-03-23T21:12:06.192Z,99.90
2023-03-23T21:14:33.815Z,99.90
2023-03-23T21:17:01.583Z,99.90
2023-03-23T21:19:29.926Z,99.90
2023-03-23T21:21:57.352Z,99.90
2023-03-23T21:24:26.526Z,99.90
2023-03-23T21:26:54.234Z,99.90
2023-03-23T21:29:23.982Z,99.90
2023-03-23T21:32:01.136Z,99.90
2023-03-23T21:34:34.484Z,99.90
2023-03-23T21:37:01.362Z,99.90
2023-03-23T21:39:28.284Z,99.90
2023-03-23T21:41:55.252Z,99.90
2023-03-23T21:44:22.249Z,99.90
2023-03-23T21:46:52.167Z,99.90
2023-03-23T21:49:19.005Z,99.90
2023-03-23T21:51:45.806Z,99.90
2023-03-23T21:54:12.604Z,99.90
2023-03-23T21:56:39.758Z,99.90
2023-03-23T21:59:07.715Z,99.90
2023-03-23T22:01:36.777Z,99.90
2023-03-23T22:04:04.531Z,99.90
2023-03-23T22:06:34.197Z,99.90
2023-03-23T22:09:07.390Z,99.90
2023-03-23T22:11:35.162Z,99.90
2023-03-23T22:14:03.204Z,99.90
2023-03-23T22:16:30.329Z,99.90
2023-03-23T22:19:00.306Z,99.90
2023-03-23T22:21:27.910Z,99.90
2023-03-23T22:23:57.629Z,99.90
2023-03-23T22:26:27.161Z,99.90
2023-03-23T22:28:54.842Z,99.90
2023-03-23T22:31:24.908Z,99.90
2023-03-23T22:33:54.942Z,99.90
2023-03-23T22:36:23.579Z,99.90
2023-03-23T22:38:51.471Z,99.90
2023-03-23T22:41:23.406Z,99.90
2023-03-23T22:43:50.217Z,99.90
2023-03-23T22:46:17.876Z,99.90
2023-03-23T22:48:45.730Z,99.90
2023-03-23T22:51:15.071Z,99.90
2023-03-23T22:53:42.082Z,99.90
2023-03-23T22:56:09.413Z,99.90
2023-03-23T22:58:36.240Z,99.90
2023-03-23T23:01:09.611Z,99.90
2023-03-23T23:03:36.954Z,99.90
2023-03-23T23:06:04.431Z,99.90
2023-03-23T23:08:32.833Z,99.90
2023-03-23T23:11:01.972Z,99.90
2023-03-23T23:13:31.874Z,99.90
2023-03-23T23:16:02.030Z,99.90
2023-03-23T23:18:30.766Z,99.90
2023-03-23T23:20:59.684Z,99.90
2023-03-23T23:23:27.980Z,99.90
2023-03-23T23:25:55.070Z,99.90
2023-03-23T23:28:22.794Z,99.90
2023-03-23T23:30:50.948Z,99.90
2023-03-23T23:33:18.881Z,99.90
2023-03-23T23:35:46.586Z,99.90
2023-03-23T23:38:14.222Z,99.90
2023-03-23T23:40:42.878Z,99.90
2023-03-23T23:43:16.863Z,99.90
2023-03-23T23:45:43.837Z,99.90
2023-03-23T23:48:11.349Z,99.90
2023-03-23T23:50:38.090Z,99.90
2023-03-23T23:53:09.739Z,99.90
2023-03-23T23:55:36.428Z,99.90
2023-03-23T23:58:03.232Z,99.90
